createdAt,value
2019-01-08T00:01:44.233Z,5.13
2019-01-08T00:04:13.030Z,5.70
2019-01-08T00:06:41.842Z,4.67
2019-01-08T00:09:10.662Z,5.57
2019-01-08T00:11:41.623Z,4.40
2019-01-08T00:14:10.422Z,4.60
2019-01-08T00:16:39.242Z,5.20
2019-01-08T00:19:08.048Z,6.33
2019-01-08T00:21:36.935Z,5.00
2019-01-08T00:24:05.721Z,5.27
2019-01-08T00:26:34.578Z,6.60
2019-01-08T00:29:03.432Z,5.47
2019-01-08T00:31:34.299Z,6.20
2019-01-08T00:34:03.122Z,4.90
2019-01-08T00:36:32.136Z,5.03
2019-01-08T00:39:07.665Z,5.20
2019-01-08T00:41:36.528Z,5.57
2019-01-08T00:44:05.386Z,5.20
2019-01-08T00:46:34.182Z,5.73
2019-01-08T00:49:04.879Z,4.80
2019-01-08T00:51:34.771Z,6.70
2019-01-08T00:54:03.566Z,5.43
2019-01-08T00:56:32.490Z,5.23
2019-01-08T00:59:02.312Z,4.63
2019-01-08T01:01:32.529Z,7.17
2019-01-08T01:04:01.320Z,4.47
2019-01-08T01:06:30.147Z,6.70
2019-01-08T01:08:58.951Z,5.93
2019-01-08T01:11:27.788Z,5.67
2019-01-08T01:13:58.576Z,5.23
2019-01-08T01:16:27.344Z,5.80
2019-01-08T01:18:56.136Z,6.03
2019-01-08T01:21:25.430Z,7.43
2019-01-08T01:23:55.137Z,6.17
2019-01-08T01:26:23.967Z,6.07
2019-01-08T01:28:59.951Z,6.20
2019-01-08T01:31:21.603Z,6.00
2019-01-08T01:33:50.495Z,5.73
2019-01-08T01:36:19.319Z,4.80
2019-01-08T01:38:48.169Z,4.87
2019-01-08T01:41:17.104Z,5.50
2019-01-08T01:43:45.914Z,5.13
2019-01-08T01:46:14.763Z,5.30
2019-01-08T01:48:43.559Z,5.43
2019-01-08T01:51:12.678Z,5.57
2019-01-08T01:53:41.460Z,7.23
2019-01-08T01:56:10.367Z,6.73
2019-01-08T01:58:39.234Z,4.83
2019-01-08T02:01:07.995Z,6.40
2019-01-08T02:03:36.884Z,5.80
2019-01-08T02:06:05.671Z,5.30
2019-01-08T02:08:34.462Z,5.50
2019-01-08T02:11:04.508Z,5.47
2019-01-08T02:13:33.388Z,5.57
2019-01-08T02:16:02.203Z,5.90
2019-01-08T02:18:31.010Z,5.77
2019-01-08T02:20:59.806Z,5.20
2019-01-08T02:23:28.628Z,6.03
2019-01-08T02:25:57.469Z,6.20
2019-01-08T02:28:26.255Z,7.77
2019-01-08T02:30:55.127Z,7.97
2019-01-08T02:33:23.913Z,5.93
2019-01-08T02:35:52.748Z,5.63
2019-01-08T02:38:22.302Z,5.47
2019-01-08T02:40:51.148Z,5.17
2019-01-08T02:43:19.925Z,6.37
2019-01-08T02:45:48.733Z,5.83
2019-01-08T02:48:17.583Z,5.60
2019-01-08T02:50:46.380Z,6.03
2019-01-08T02:53:15.163Z,6.10
2019-01-08T02:55:43.974Z,5.30
2019-01-08T02:58:12.784Z,6.13
2019-01-08T03:00:42.093Z,6.40
2019-01-08T03:03:10.939Z,6.53
2019-01-08T03:05:39.795Z,6.40
2019-01-08T03:08:08.646Z,6.00
2019-01-08T03:10:37.479Z,6.50
2019-01-08T03:13:06.334Z,6.03
2019-01-08T03:15:35.920Z,5.70
2019-01-08T03:18:04.871Z,5.97
2019-01-08T03:20:34.811Z,7.20
2019-01-08T03:23:03.640Z,5.87
2019-01-08T03:25:32.527Z,7.27
2019-01-08T03:28:01.370Z,5.83
2019-01-08T03:30:30.583Z,6.37
2019-01-08T03:32:59.381Z,6.93
2019-01-08T03:35:28.167Z,6.33
2019-01-08T03:37:57.608Z,5.90
2019-01-08T03:40:28.893Z,6.30
2019-01-08T03:42:58.252Z,7.03
2019-01-08T03:45:27.041Z,6.10
2019-01-08T03:47:56.380Z,6.10
2019-01-08T03:50:25.166Z,7.07
2019-01-08T03:52:54.160Z,6.20
2019-01-08T03:55:22.947Z,5.80
2019-01-08T03:57:51.809Z,6.50
2019-01-08T04:00:20.620Z,7.63
2019-01-08T04:02:50.812Z,6.07
2019-01-08T04:05:19.594Z,5.73
2019-01-08T04:07:48.430Z,6.33
2019-01-08T04:10:17.900Z,6.47
2019-01-08T04:12:47.761Z,6.37
2019-01-08T04:15:16.727Z,5.80
2019-01-08T04:17:45.776Z,6.10
2019-01-08T04:20:14.575Z,6.00
2019-01-08T04:22:43.399Z,6.47
2019-01-08T04:25:12.211Z,5.43
2019-01-08T04:27:40.998Z,6.47
2019-01-08T04:30:09.819Z,7.23
2019-01-08T04:32:40.379Z,6.27
2019-01-08T04:35:09.740Z,6.97
2019-01-08T04:37:38.618Z,6.03
2019-01-08T04:40:07.388Z,6.33
2019-01-08T04:42:36.263Z,6.23
2019-01-08T04:45:05.321Z,5.90
2019-01-08T04:47:34.127Z,5.37
2019-01-08T04:50:02.926Z,5.60
2019-01-08T04:52:31.851Z,5.53
2019-01-08T04:55:00.729Z,4.93
2019-01-08T04:57:31.166Z,5.30
2019-01-08T04:59:59.970Z,5.67
2019-01-08T05:02:29.248Z,6.27
2019-01-08T05:04:58.062Z,5.90
2019-01-08T05:07:26.869Z,5.37
2019-01-08T05:09:55.677Z,4.43
2019-01-08T05:12:24.711Z,4.27
2019-01-08T05:14:53.495Z,4.67
2019-01-08T05:17:22.357Z,4.03
2019-01-08T05:19:51.139Z,4.67
2019-01-08T05:22:20.050Z,4.73
2019-01-08T05:24:48.919Z,4.63
2019-01-08T05:27:17.792Z,5.33
2019-01-08T05:29:46.982Z,6.10
2019-01-08T05:32:15.819Z,5.93
2019-01-08T05:34:44.691Z,5.13
2019-01-08T05:37:15.048Z,5.50
2019-01-08T05:39:44.541Z,5.53
2019-01-08T05:42:13.462Z,5.20
2019-01-08T05:44:42.257Z,4.97
2019-01-08T05:47:11.084Z,5.20
2019-01-08T05:49:39.895Z,3.73
2019-01-08T05:52:10.305Z,3.20
2019-01-08T05:54:39.055Z,2.90
2019-01-08T05:57:07.849Z,3.13
2019-01-08T05:59:36.655Z,3.43
2019-01-08T06:02:05.464Z,3.40
2019-01-08T06:04:34.623Z,3.70
2019-01-08T06:07:03.455Z,3.03
2019-01-08T06:09:32.262Z,4.23
2019-01-08T06:12:01.422Z,3.80
2019-01-08T06:14:30.208Z,3.57
2019-01-08T06:16:59.091Z,3.73
2019-01-08T06:19:27.870Z,4.23
2019-01-08T06:21:56.723Z,3.87
2019-01-08T06:24:25.511Z,4.57
2019-01-08T06:26:54.334Z,4.53
2019-01-08T06:29:23.126Z,4.70
2019-01-08T06:31:51.929Z,5.20
2019-01-08T06:34:20.699Z,4.50
2019-01-08T06:36:50.732Z,4.40
2019-01-08T06:39:19.551Z,4.60
2019-01-08T06:41:48.339Z,4.53
2019-01-08T06:44:17.196Z,4.53
2019-01-08T06:46:46.035Z,4.20
2019-01-08T06:49:14.985Z,5.70
2019-01-08T06:51:43.796Z,4.83
2019-01-08T06:54:12.671Z,4.30
2019-01-08T06:56:41.471Z,5.87
2019-01-08T06:59:10.240Z,5.33
2019-01-08T07:01:39.027Z,4.90
2019-01-08T07:04:07.826Z,4.17
2019-01-08T07:06:36.659Z,5.57
2019-01-08T07:09:06.647Z,5.20
2019-01-08T07:11:35.414Z,4.50
2019-01-08T07:14:05.202Z,5.47
2019-01-08T07:16:35.139Z,5.00
2019-01-08T07:19:04.004Z,5.87
2019-01-08T07:21:32.818Z,5.00
2019-01-08T07:24:01.616Z,6.00
2019-01-08T07:26:30.490Z,5.80
2019-01-08T07:28:59.286Z,5.53
2019-01-08T07:31:28.086Z,5.17
2019-01-08T07:33:56.925Z,4.93
2019-01-08T07:36:25.759Z,5.60
2019-01-08T07:38:54.624Z,5.83
2019-01-08T07:41:23.343Z,5.33
2019-01-08T07:43:52.110Z,5.20
2019-01-08T07:46:21.297Z,4.90
2019-01-08T07:48:50.107Z,5.90
2019-01-08T07:51:18.911Z,5.97
2019-01-08T07:53:47.689Z,5.50
2019-01-08T07:56:16.489Z,5.57
2019-01-08T07:58:45.291Z,5.73
2019-01-08T08:01:14.081Z,6.07
2019-01-08T08:03:42.974Z,5.83
2019-01-08T08:06:12.452Z,6.90
2019-01-08T08:08:41.303Z,4.93
2019-01-08T08:11:10.095Z,5.30
2019-01-08T08:13:38.909Z,6.33
2019-01-08T08:16:09.700Z,6.47
2019-01-08T08:18:39.292Z,5.70
2019-01-08T08:21:08.087Z,5.67
2019-01-08T08:23:36.891Z,6.07
2019-01-08T08:26:05.696Z,5.90
2019-01-08T08:28:35.086Z,5.77
2019-01-08T08:31:03.951Z,6.80
2019-01-08T08:33:32.842Z,6.90
2019-01-08T08:36:01.777Z,6.37
2019-01-08T08:38:30.683Z,6.67
2019-01-08T08:40:59.531Z,6.13
2019-01-08T08:43:28.347Z,6.40
2019-01-08T08:45:57.119Z,8.57
2019-01-08T08:48:26.654Z,8.53
2019-01-08T08:50:55.443Z,7.37
2019-01-08T08:53:24.232Z,7.83
2019-01-08T08:55:53.087Z,7.67
2019-01-08T08:58:22.143Z,6.70
2019-01-08T09:00:50.898Z,8.13
2019-01-08T09:03:19.721Z,9.23
2019-01-08T09:05:48.511Z,7.33
2019-01-08T09:08:17.299Z,7.67
2019-01-08T09:10:46.097Z,7.90
2019-01-08T09:13:15.406Z,8.30
2019-01-08T09:15:44.211Z,7.73
2019-01-08T09:18:13.044Z,9.00
2019-01-08T09:20:42.363Z,8.07
2019-01-08T09:23:13.530Z,8.63
2019-01-08T09:25:42.727Z,7.80
2019-01-08T09:28:11.523Z,7.60
2019-01-08T09:30:40.321Z,7.43
2019-01-08T09:33:09.994Z,6.90
2019-01-08T09:35:39.560Z,7.60
2019-01-08T09:38:08.323Z,8.30
2019-01-08T09:40:37.196Z,9.00
2019-01-08T09:43:05.974Z,7.83
2019-01-08T09:45:34.747Z,7.53
2019-01-08T09:48:03.592Z,7.60
2019-01-08T09:50:32.452Z,6.60
2019-01-08T09:53:01.273Z,7.73
2019-01-08T09:55:30.103Z,7.83
2019-01-08T09:57:58.900Z,7.60
2019-01-08T10:00:27.679Z,7.23
2019-01-08T10:02:56.485Z,7.20
2019-01-08T10:05:25.278Z,7.67
2019-01-08T10:07:54.069Z,8.63
2019-01-08T10:10:22.855Z,8.17
2019-01-08T10:12:51.744Z,9.87
2019-01-08T10:15:20.531Z,7.77
2019-01-08T10:17:49.379Z,8.03
2019-01-08T10:20:18.274Z,8.73
2019-01-08T10:22:47.100Z,8.23
2019-01-08T10:25:15.884Z,7.33
2019-01-08T10:27:46.019Z,7.73
2019-01-08T10:30:15.158Z,7.60
2019-01-08T10:32:43.920Z,8.13
2019-01-08T10:35:12.728Z,7.37
2019-01-08T10:37:42.381Z,7.20
2019-01-08T10:40:11.179Z,6.47
2019-01-08T10:42:39.982Z,8.90
2019-01-08T10:45:08.842Z,7.17
2019-01-08T10:47:37.695Z,7.77
2019-01-08T10:50:06.795Z,6.03
2019-01-08T10:52:35.596Z,6.37
2019-01-08T10:55:05.325Z,7.10
2019-01-08T10:57:34.128Z,8.07
2019-01-08T11:00:02.917Z,5.77
2019-01-08T11:02:31.789Z,6.67
2019-01-08T11:05:00.691Z,7.70
2019-01-08T11:07:29.566Z,8.90
2019-01-08T11:09:58.839Z,8.40
2019-01-08T11:12:27.660Z,7.53
2019-01-08T11:14:56.541Z,7.33
2019-01-08T11:17:25.347Z,7.80
2019-01-08T11:19:54.118Z,6.90
2019-01-08T11:22:23.006Z,6.93
2019-01-08T11:24:51.812Z,7.77
2019-01-08T11:27:20.590Z,7.40
2019-01-08T11:29:49.388Z,8.40
2019-01-08T11:32:18.193Z,7.20
2019-01-08T11:34:47.571Z,8.47
2019-01-08T11:37:16.347Z,8.07
2019-01-08T11:39:45.126Z,7.77
2019-01-08T11:42:13.963Z,7.13
2019-01-08T11:44:42.746Z,7.93
2019-01-08T11:47:11.530Z,6.57
2019-01-08T11:49:40.384Z,8.17
2019-01-08T11:52:09.282Z,7.10
2019-01-08T11:54:41.252Z,10.57
2019-01-08T11:57:07.998Z,7.50
2019-01-08T11:59:36.774Z,7.67
2019-01-08T12:02:05.989Z,7.00
2019-01-08T12:04:35.784Z,6.57
2019-01-08T12:07:04.625Z,8.10
2019-01-08T12:09:33.915Z,6.40
2019-01-08T12:12:02.923Z,8.37
2019-01-08T12:14:31.751Z,7.77
2019-01-08T12:17:00.560Z,6.93
2019-01-08T12:19:30.451Z,7.37
2019-01-08T12:21:59.247Z,6.43
2019-01-08T12:24:28.050Z,6.33
2019-01-08T12:26:56.863Z,6.87
2019-01-08T12:29:25.685Z,6.03
2019-01-08T12:31:55.812Z,6.10
2019-01-08T12:34:23.317Z,7.27
2019-01-08T12:36:52.111Z,6.13
2019-01-08T12:39:20.902Z,5.70
2019-01-08T12:41:49.753Z,8.83
2019-01-08T12:44:18.662Z,8.00
2019-01-08T12:46:48.367Z,8.40
2019-01-08T12:49:17.495Z,6.60
2019-01-08T12:51:47.120Z,6.40
2019-01-08T12:54:16.581Z,6.67
2019-01-08T12:56:45.414Z,6.57
2019-01-08T12:59:14.385Z,6.53
2019-01-08T13:01:44.224Z,5.30
2019-01-08T13:04:13.101Z,7.20
2019-01-08T13:06:43.664Z,5.10
2019-01-08T13:09:11.979Z,5.40
2019-01-08T13:11:40.904Z,6.90
2019-01-08T13:14:09.779Z,6.07
2019-01-08T13:16:38.575Z,5.87
2019-01-08T13:19:07.371Z,5.37
2019-01-08T13:21:36.251Z,5.77
2019-01-08T13:24:05.876Z,6.77
2019-01-08T13:26:33.886Z,7.07
2019-01-08T13:29:02.805Z,8.33
2019-01-08T13:31:31.895Z,6.93
2019-01-08T13:34:00.825Z,7.67
2019-01-08T13:36:29.623Z,7.73
2019-01-08T13:38:59.158Z,6.60
2019-01-08T13:41:28.028Z,7.33
2019-01-08T13:43:56.927Z,6.67
2019-01-08T13:46:25.900Z,6.03
2019-01-08T13:48:54.681Z,6.73
2019-01-08T13:51:23.459Z,7.37
2019-01-08T13:53:52.306Z,6.13
2019-01-08T13:56:21.249Z,6.63
2019-01-08T13:58:50.127Z,6.17
2019-01-08T14:01:18.995Z,4.77
2019-01-08T14:03:47.824Z,5.47
2019-01-08T14:06:16.636Z,5.93
2019-01-08T14:08:45.435Z,6.03
2019-01-08T14:11:14.231Z,4.97
2019-01-08T14:13:43.139Z,6.07
2019-01-08T14:16:11.959Z,6.80
2019-01-08T14:18:41.414Z,5.93
2019-01-08T14:21:10.263Z,5.53
2019-01-08T14:23:39.132Z,6.13
2019-01-08T14:26:08.674Z,7.73
2019-01-08T14:28:37.556Z,6.20
2019-01-08T14:31:06.371Z,5.77
2019-01-08T14:33:35.210Z,5.37
2019-01-08T14:36:04.049Z,5.63
2019-01-08T14:38:32.856Z,5.47
2019-01-08T14:41:01.682Z,5.57
2019-01-08T14:43:31.380Z,6.00
2019-01-08T14:46:00.218Z,5.97
2019-01-08T14:48:29.043Z,5.93
2019-01-08T14:50:57.899Z,4.90
2019-01-08T14:53:26.711Z,5.10
2019-01-08T14:55:58.644Z,5.37
2019-01-08T14:58:27.422Z,6.07
2019-01-08T15:00:56.337Z,5.13
2019-01-08T15:03:25.138Z,6.20
2019-01-08T15:05:53.960Z,5.73
2019-01-08T15:08:22.793Z,5.90
2019-01-08T15:10:51.706Z,6.13
2019-01-08T15:13:20.494Z,5.10
2019-01-08T15:15:49.290Z,4.83
2019-01-08T15:18:18.200Z,5.93
2019-01-08T15:20:47.072Z,5.10
2019-01-08T15:23:15.863Z,7.87
2019-01-08T15:25:44.820Z,5.67
2019-01-08T15:28:13.793Z,6.03
2019-01-08T15:30:42.463Z,7.23
2019-01-08T15:33:11.462Z,5.33
2019-01-08T15:35:40.563Z,5.10
2019-01-08T15:38:09.973Z,5.60
2019-01-08T15:40:39.077Z,5.77
2019-01-08T15:43:07.962Z,5.77
2019-01-08T15:45:39.815Z,6.03
2019-01-08T15:48:08.603Z,5.70
2019-01-08T15:50:37.937Z,5.27
2019-01-08T15:53:08.089Z,5.33
2019-01-08T15:55:36.953Z,5.83
2019-01-08T15:58:05.808Z,4.40
2019-01-08T16:00:34.694Z,6.60
2019-01-08T16:03:07.439Z,5.90
2019-01-08T16:05:34.500Z,9.47
2019-01-08T16:08:03.302Z,5.17
2019-01-08T16:10:32.167Z,5.50
2019-01-08T16:13:01.389Z,5.67
2019-01-08T16:15:30.268Z,5.80
2019-01-08T16:17:59.302Z,5.43
2019-01-08T16:20:30.309Z,5.27
2019-01-08T16:22:59.168Z,5.77
2019-01-08T16:25:28.088Z,5.30
2019-01-08T16:27:56.916Z,6.23
2019-01-08T16:30:25.741Z,4.97
2019-01-08T16:32:54.603Z,5.30
2019-01-08T16:35:23.389Z,5.27
2019-01-08T16:37:52.188Z,4.93
2019-01-08T16:40:21.454Z,5.67
2019-01-08T16:42:50.944Z,6.03
2019-01-08T16:45:19.866Z,5.67
2019-01-08T16:47:48.694Z,5.40
2019-01-08T16:50:19.683Z,5.97
2019-01-08T16:52:48.615Z,3.93
2019-01-08T16:55:17.502Z,4.87
2019-01-08T16:57:47.146Z,5.40
2019-01-08T17:00:15.901Z,5.67
2019-01-08T17:02:44.829Z,5.70
2019-01-08T17:05:13.648Z,6.13
2019-01-08T17:07:42.487Z,5.40
2019-01-08T17:10:11.268Z,5.27
2019-01-08T17:12:40.210Z,5.63
2019-01-08T17:15:09.027Z,5.47
2019-01-08T17:17:38.755Z,5.43
2019-01-08T17:20:08.317Z,5.40
2019-01-08T17:22:37.302Z,5.37
2019-01-08T17:25:06.644Z,6.37
2019-01-08T17:27:35.471Z,6.20
2019-01-08T17:30:04.937Z,5.67
2019-01-08T17:32:33.706Z,5.87
2019-01-08T17:35:02.636Z,5.37
2019-01-08T17:37:31.559Z,5.73
2019-01-08T17:40:01.700Z,6.07
2019-01-08T17:42:30.674Z,5.97
2019-01-08T17:44:59.556Z,5.27
2019-01-08T17:47:30.044Z,4.80
2019-01-08T17:50:00.160Z,5.53
2019-01-08T17:52:29.006Z,5.80
2019-01-08T17:54:57.802Z,6.70
2019-01-08T17:57:26.621Z,5.40
2019-01-08T17:59:55.396Z,5.40
2019-01-08T18:02:24.184Z,4.83
2019-01-08T18:04:53.998Z,5.03
2019-01-08T18:07:22.958Z,6.33
2019-01-08T18:09:51.895Z,5.57
2019-01-08T18:12:21.563Z,5.07
2019-01-08T18:14:50.453Z,5.13
2019-01-08T18:17:20.577Z,6.30
2019-01-08T18:19:49.591Z,6.00
2019-01-08T18:22:18.402Z,5.73
2019-01-08T18:24:47.246Z,6.27
2019-01-08T18:27:16.029Z,6.53
2019-01-08T18:29:46.220Z,5.53
2019-01-08T18:32:15.023Z,5.07
2019-01-08T18:34:43.932Z,6.30
2019-01-08T18:37:12.795Z,5.37
2019-01-08T18:39:41.635Z,6.43
2019-01-08T18:42:10.975Z,5.23
2019-01-08T18:44:39.844Z,6.73
2019-01-08T18:47:09.271Z,6.67
2019-01-08T18:49:39.223Z,6.40
2019-01-08T18:52:11.718Z,6.37
2019-01-08T18:54:40.562Z,6.70
2019-01-08T18:57:09.483Z,6.20
2019-01-08T18:59:38.374Z,6.00
2019-01-08T19:02:07.364Z,6.93
2019-01-08T19:04:36.251Z,6.20
2019-01-08T19:07:05.650Z,5.40
2019-01-08T19:09:36.323Z,4.20
2019-01-08T19:12:07.393Z,5.37
2019-01-08T19:14:38.627Z,5.63
2019-01-08T19:17:07.471Z,4.27
2019-01-08T19:19:36.306Z,5.77
2019-01-08T19:22:05.354Z,4.57
2019-01-08T19:24:34.128Z,4.70
2019-01-08T19:27:03.718Z,4.67
2019-01-08T19:29:32.578Z,5.03
2019-01-08T19:32:01.505Z,5.13
2019-01-08T19:34:30.487Z,5.00
2019-01-08T19:36:59.275Z,6.10
2019-01-08T19:39:28.160Z,5.07
2019-01-08T19:41:57.064Z,7.23
2019-01-08T19:44:27.382Z,5.03
2019-01-08T19:46:58.484Z,4.73
2019-01-08T19:49:27.630Z,4.07
2019-01-08T19:51:56.675Z,3.70
2019-01-08T19:54:25.719Z,2.83
2019-01-08T19:56:55.076Z,2.60
2019-01-08T19:59:24.495Z,2.73
2019-01-08T20:01:53.343Z,2.03
2019-01-08T20:04:22.236Z,2.50
2019-01-08T20:06:51.175Z,2.33
2019-01-08T20:09:25.316Z,2.20
2019-01-08T20:11:48.878Z,2.07
2019-01-08T20:14:19.987Z,3.27
2019-01-08T20:16:48.830Z,3.20
2019-01-08T20:19:17.624Z,2.37
2019-01-08T20:21:46.410Z,2.07
2019-01-08T20:24:15.339Z,3.13
2019-01-08T20:26:44.147Z,3.10
2019-01-08T20:29:12.987Z,2.83
2019-01-08T20:31:41.824Z,2.80
2019-01-08T20:34:11.366Z,2.90
2019-01-08T20:36:40.913Z,2.83
2019-01-08T20:39:13.147Z,2.73
2019-01-08T20:41:41.981Z,3.10
2019-01-08T20:44:11.824Z,3.43
2019-01-08T20:46:42.358Z,4.67
2019-01-08T20:49:13.612Z,5.07
2019-01-08T20:51:43.451Z,3.93
2019-01-08T20:54:12.930Z,4.70
2019-01-08T20:56:41.691Z,4.77
2019-01-08T20:59:11.326Z,4.20
2019-01-08T21:01:40.099Z,4.80
2019-01-08T21:04:09.193Z,4.83
2019-01-08T21:06:38.015Z,4.87
2019-01-08T21:09:07.691Z,3.80
2019-01-08T21:11:38.037Z,3.17
2019-01-08T21:14:07.158Z,4.10
2019-01-08T21:16:35.983Z,3.90
2019-01-08T21:19:04.960Z,3.50
2019-01-08T21:21:33.812Z,4.70
2019-01-08T21:24:02.677Z,3.93
2019-01-08T21:26:31.539Z,2.93
2019-01-08T21:29:00.404Z,3.90
2019-01-08T21:31:30.128Z,2.93
2019-01-08T21:33:58.965Z,3.20
2019-01-08T21:36:27.819Z,2.93
2019-01-08T21:38:56.645Z,1.93
2019-01-08T21:41:25.431Z,2.53
2019-01-08T21:43:54.300Z,3.07
2019-01-08T21:46:23.109Z,4.27
2019-01-08T21:48:51.904Z,3.00
2019-01-08T21:51:20.823Z,3.97
2019-01-08T21:53:49.632Z,3.90
2019-01-08T21:56:18.463Z,3.67
2019-01-08T21:58:48.588Z,4.00
2019-01-08T22:01:17.367Z,2.93
2019-01-08T22:03:46.211Z,3.87
2019-01-08T22:06:15.043Z,3.47
2019-01-08T22:08:43.922Z,4.17
2019-01-08T22:11:12.713Z,3.30
2019-01-08T22:13:42.034Z,3.90
2019-01-08T22:16:11.520Z,3.90
2019-01-08T22:18:40.431Z,3.53
2019-01-08T22:21:09.291Z,4.40
2019-01-08T22:23:38.048Z,5.33
2019-01-08T22:26:07.080Z,4.43
2019-01-08T22:28:39.448Z,3.97
2019-01-08T22:31:08.207Z,5.00
2019-01-08T22:33:37.034Z,5.80
2019-01-08T22:36:05.812Z,5.47
2019-01-08T22:38:36.818Z,4.37
2019-01-08T22:41:05.991Z,5.00
2019-01-08T22:43:34.843Z,5.40
2019-01-08T22:46:03.732Z,5.33
2019-01-08T22:48:32.596Z,6.13
2019-01-08T22:51:01.415Z,5.13
2019-01-08T22:53:30.264Z,5.80
2019-01-08T22:55:59.035Z,5.47
2019-01-08T22:58:27.845Z,5.33
2019-01-08T23:01:33.129Z,4.80
2019-01-08T23:04:02.158Z,6.70
2019-01-08T23:06:31.186Z,5.67
2019-01-08T23:09:00.088Z,7.67
2019-01-08T23:11:28.796Z,5.33
2019-01-08T23:13:57.691Z,6.67
2019-01-08T23:16:27.215Z,5.93
2019-01-08T23:18:56.038Z,5.93
2019-01-08T23:21:24.971Z,5.73
2019-01-08T23:23:53.860Z,5.73
2019-01-08T23:26:22.675Z,5.70
2019-01-08T23:28:51.539Z,5.50
2019-01-08T23:31:20.320Z,6.20
2019-01-08T23:33:49.217Z,5.37
2019-01-08T23:36:18.185Z,5.83
2019-01-08T23:38:47.855Z,4.93
2019-01-08T23:41:16.702Z,5.43
2019-01-08T23:43:45.488Z,5.90
2019-01-08T23:46:14.273Z,4.00
2019-01-08T23:48:43.074Z,4.87
2019-01-08T23:51:11.971Z,5.37
2019-01-08T23:53:41.129Z,4.63
2019-01-08T23:56:09.926Z,5.73
2019-01-08T23:58:40.469Z,4.83
